sensor_id;sensor_type;location;lat;lon;timestamp;P1;durP1;ratioP1;P2;durP2;ratioP2
16977;SDS011;8605;52.548;4.918;2023-04-05T00:01:48;43.50;;;26.25;;
16977;SDS011;8605;52.548;4.918;2023-04-05T00:06:52;47.60;;;26.58;;
16977;SDS011;8605;52.548;4.918;2023-04-05T00:11:55;51.80;;;27.42;;
16977;SDS011;8605;52.548;4.918;2023-04-05T00:16:58;55.35;;;29.85;;
16977;SDS011;8605;52.548;4.918;2023-04-05T00:22:02;60.03;;;30.80;;
16977;SDS011;8605;52.548;4.918;2023-04-05T00:27:05;58.37;;;30.80;;
16977;SDS011;8605;52.548;4.918;2023-04-05T00:32:08;56.47;;;31.55;;
16977;SDS011;8605;52.548;4.918;2023-04-05T00:37:13;64.75;;;32.53;;
16977;SDS011;8605;52.548;4.918;2023-04-05T00:42:16;59.40;;;31.60;;
16977;SDS011;8605;52.548;4.918;2023-04-05T00:47:19;58.30;;;31.20;;
16977;SDS011;8605;52.548;4.918;2023-04-05T00:52:23;62.33;;;31.80;;
16977;SDS011;8605;52.548;4.918;2023-04-05T00:57:27;57.40;;;32.35;;
16977;SDS011;8605;52.548;4.918;2023-04-05T01:02:31;61.07;;;31.17;;
16977;SDS011;8605;52.548;4.918;2023-04-05T01:07:37;61.72;;;33.40;;
16977;SDS011;8605;52.548;4.918;2023-04-05T01:12:44;58.90;;;31.13;;
16977;SDS011;8605;52.548;4.918;2023-04-05T01:17:48;55.78;;;30.42;;
16977;SDS011;8605;52.548;4.918;2023-04-05T01:34:07;64.03;;;31.60;;
16977;SDS011;8605;52.548;4.918;2023-04-05T01:39:19;66.07;;;32.80;;
16977;SDS011;8605;52.548;4.918;2023-04-05T01:44:22;65.63;;;33.73;;
16977;SDS011;8605;52.548;4.918;2023-04-05T01:49:27;59.78;;;31.75;;
16977;SDS011;8605;52.548;4.918;2023-04-05T01:54:30;60.22;;;32.75;;
16977;SDS011;8605;52.548;4.918;2023-04-05T01:59:33;61.60;;;33.42;;
16977;SDS011;8605;52.548;4.918;2023-04-05T02:04:37;69.93;;;34.10;;
16977;SDS011;8605;52.548;4.918;2023-04-05T02:09:40;68.45;;;34.35;;
16977;SDS011;8605;52.548;4.918;2023-04-05T02:14:43;75.57;;;37.97;;
16977;SDS011;8605;52.548;4.918;2023-04-05T02:19:47;71.70;;;37.30;;
16977;SDS011;8605;52.548;4.918;2023-04-05T02:24:50;68.95;;;36.20;;
16977;SDS011;8605;52.548;4.918;2023-04-05T02:29:53;65.32;;;35.67;;
16977;SDS011;8605;52.548;4.918;2023-04-05T02:34:57;68.35;;;35.33;;
16977;SDS011;8605;52.548;4.918;2023-04-05T02:40:00;73.90;;;34.63;;
16977;SDS011;8605;52.548;4.918;2023-04-05T02:45:04;66.80;;;33.72;;
16977;SDS011;8605;52.548;4.918;2023-04-05T02:50:10;61.87;;;32.53;;
16977;SDS011;8605;52.548;4.918;2023-04-05T02:55:18;63.50;;;31.10;;
16977;SDS011;8605;52.548;4.918;2023-04-05T03:00:20;62.08;;;30.30;;
16977;SDS011;8605;52.548;4.918;2023-04-05T03:05:26;63.95;;;31.55;;
16977;SDS011;8605;52.548;4.918;2023-04-05T03:10:31;59.85;;;30.75;;
16977;SDS011;8605;52.548;4.918;2023-04-05T03:15:47;60.72;;;30.45;;
16977;SDS011;8605;52.548;4.918;2023-04-05T03:20:53;58.38;;;28.92;;
16977;SDS011;8605;52.548;4.918;2023-04-05T03:25:58;64.10;;;30.30;;
16977;SDS011;8605;52.548;4.918;2023-04-05T03:31:05;56.28;;;28.98;;
16977;SDS011;8605;52.548;4.918;2023-04-05T03:36:09;60.75;;;29.27;;
16977;SDS011;8605;52.548;4.918;2023-04-05T03:41:19;57.03;;;29.35;;
16977;SDS011;8605;52.548;4.918;2023-04-05T03:46:22;56.97;;;30.03;;
16977;SDS011;8605;52.548;4.918;2023-04-05T03:51:26;58.42;;;29.55;;
16977;SDS011;8605;52.548;4.918;2023-04-05T03:56:29;60.75;;;29.88;;
16977;SDS011;8605;52.548;4.918;2023-04-05T04:01:37;58.93;;;28.50;;
16977;SDS011;8605;52.548;4.918;2023-04-05T04:06:42;59.17;;;29.60;;
16977;SDS011;8605;52.548;4.918;2023-04-05T04:11:45;63.20;;;31.10;;
16977;SDS011;8605;52.548;4.918;2023-04-05T04:16:54;60.00;;;29.63;;
16977;SDS011;8605;52.548;4.918;2023-04-05T04:22:14;61.47;;;32.85;;
16977;SDS011;8605;52.548;4.918;2023-04-05T04:27:41;63.80;;;32.20;;
16977;SDS011;8605;52.548;4.918;2023-04-05T04:33:08;68.43;;;33.33;;
16977;SDS011;8605;52.548;4.918;2023-04-05T04:38:21;67.37;;;33.33;;
16977;SDS011;8605;52.548;4.918;2023-04-05T04:43:44;67.88;;;33.70;;
16977;SDS011;8605;52.548;4.918;2023-04-05T04:49:01;64.82;;;30.83;;
16977;SDS011;8605;52.548;4.918;2023-04-05T04:54:07;64.00;;;32.70;;
16977;SDS011;8605;52.548;4.918;2023-04-05T04:59:10;65.15;;;32.45;;
16977;SDS011;8605;52.548;4.918;2023-04-05T05:04:13;65.87;;;32.93;;
16977;SDS011;8605;52.548;4.918;2023-04-05T05:09:18;72.40;;;33.17;;
16977;SDS011;8605;52.548;4.918;2023-04-05T05:14:27;72.33;;;33.83;;
16977;SDS011;8605;52.548;4.918;2023-04-05T05:19:30;75.20;;;34.50;;
16977;SDS011;8605;52.548;4.918;2023-04-05T05:24:34;67.20;;;34.73;;
16977;SDS011;8605;52.548;4.918;2023-04-05T05:29:38;65.40;;;35.10;;
16977;SDS011;8605;52.548;4.918;2023-04-05T05:34:43;77.50;;;35.20;;
16977;SDS011;8605;52.548;4.918;2023-04-05T05:39:50;74.23;;;35.90;;
16977;SDS011;8605;52.548;4.918;2023-04-05T05:44:53;74.43;;;36.97;;
16977;SDS011;8605;52.548;4.918;2023-04-05T05:49:56;78.72;;;38.22;;
16977;SDS011;8605;52.548;4.918;2023-04-05T05:55:00;79.05;;;39.08;;
16977;SDS011;8605;52.548;4.918;2023-04-05T06:00:03;76.72;;;38.03;;
16977;SDS011;8605;52.548;4.918;2023-04-05T06:05:12;81.85;;;39.63;;
16977;SDS011;8605;52.548;4.918;2023-04-05T06:10:17;87.15;;;42.88;;
16977;SDS011;8605;52.548;4.918;2023-04-05T06:15:20;93.60;;;42.83;;
16977;SDS011;8605;52.548;4.918;2023-04-05T06:20:23;89.53;;;47.30;;
16977;SDS011;8605;52.548;4.918;2023-04-05T06:25:27;102.60;;;48.97;;
16977;SDS011;8605;52.548;4.918;2023-04-05T06:30:31;95.22;;;50.00;;
16977;SDS011;8605;52.548;4.918;2023-04-05T06:35:34;92.55;;;47.80;;
16977;SDS011;8605;52.548;4.918;2023-04-05T06:40:38;85.60;;;45.77;;
16977;SDS011;8605;52.548;4.918;2023-04-05T06:45:42;86.50;;;43.28;;
16977;SDS011;8605;52.548;4.918;2023-04-05T06:50:44;78.97;;;42.55;;
16977;SDS011;8605;52.548;4.918;2023-04-05T06:55:49;76.00;;;40.45;;
16977;SDS011;8605;52.548;4.918;2023-04-05T07:00:52;83.45;;;47.08;;
16977;SDS011;8605;52.548;4.918;2023-04-05T07:05:56;81.07;;;44.30;;
16977;SDS011;8605;52.548;4.918;2023-04-05T07:11:02;81.07;;;48.20;;
16977;SDS011;8605;52.548;4.918;2023-04-05T07:16:05;77.22;;;48.88;;
16977;SDS011;8605;52.548;4.918;2023-04-05T07:21:09;68.50;;;36.88;;
16977;SDS011;8605;52.548;4.918;2023-04-05T07:26:13;54.80;;;31.67;;
16977;SDS011;8605;52.548;4.918;2023-04-05T07:31:16;48.00;;;28.33;;
16977;SDS011;8605;52.548;4.918;2023-04-05T07:36:19;39.70;;;23.35;;
16977;SDS011;8605;52.548;4.918;2023-04-05T07:41:24;40.38;;;23.60;;
16977;SDS011;8605;52.548;4.918;2023-04-05T07:46:32;43.00;;;24.90;;
16977;SDS011;8605;52.548;4.918;2023-04-05T07:51:36;39.57;;;22.67;;
16977;SDS011;8605;52.548;4.918;2023-04-05T07:56:40;33.72;;;19.83;;
16977;SDS011;8605;52.548;4.918;2023-04-05T08:01:43;32.45;;;19.02;;
16977;SDS011;8605;52.548;4.918;2023-04-05T08:06:46;36.75;;;18.33;;
16977;SDS011;8605;52.548;4.918;2023-04-05T08:11:50;32.95;;;18.17;;
16977;SDS011;8605;52.548;4.918;2023-04-05T08:16:53;36.00;;;20.50;;
16977;SDS011;8605;52.548;4.918;2023-04-05T08:21:56;34.23;;;18.87;;
16977;SDS011;8605;52.548;4.918;2023-04-05T08:27:00;28.55;;;16.70;;
16977;SDS011;8605;52.548;4.918;2023-04-05T08:32:03;28.60;;;16.80;;
16977;SDS011;8605;52.548;4.918;2023-04-05T08:37:06;22.73;;;14.53;;
16977;SDS011;8605;52.548;4.918;2023-04-05T08:42:12;25.27;;;13.75;;
16977;SDS011;8605;52.548;4.918;2023-04-05T08:47:18;31.57;;;15.30;;
16977;SDS011;8605;52.548;4.918;2023-04-05T08:52:21;19.98;;;12.95;;
16977;SDS011;8605;52.548;4.918;2023-04-05T08:57:28;22.67;;;14.43;;
16977;SDS011;8605;52.548;4.918;2023-04-05T09:02:33;26.05;;;14.50;;
16977;SDS011;8605;52.548;4.918;2023-04-05T09:07:39;22.73;;;13.48;;
16977;SDS011;8605;52.548;4.918;2023-04-05T09:12:44;16.95;;;9.85;;
16977;SDS011;8605;52.548;4.918;2023-04-05T09:17:47;17.70;;;10.50;;
16977;SDS011;8605;52.548;4.918;2023-04-05T09:22:50;13.00;;;7.03;;
16977;SDS011;8605;52.548;4.918;2023-04-05T09:27:54;10.90;;;6.78;;
16977;SDS011;8605;52.548;4.918;2023-04-05T09:32:57;9.15;;;5.70;;
16977;SDS011;8605;52.548;4.918;2023-04-05T09:38:01;12.83;;;5.77;;
16977;SDS011;8605;52.548;4.918;2023-04-05T09:43:09;9.73;;;5.45;;
16977;SDS011;8605;52.548;4.918;2023-04-05T09:48:12;7.82;;;4.60;;
16977;SDS011;8605;52.548;4.918;2023-04-05T09:53:15;10.00;;;4.75;;
16977;SDS011;8605;52.548;4.918;2023-04-05T09:58:23;8.73;;;4.47;;
16977;SDS011;8605;52.548;4.918;2023-04-05T10:03:26;7.83;;;4.80;;
16977;SDS011;8605;52.548;4.918;2023-04-05T10:08:29;12.55;;;5.32;;
16977;SDS011;8605;52.548;4.918;2023-04-05T10:13:33;12.93;;;5.47;;
16977;SDS011;8605;52.548;4.918;2023-04-05T10:18:39;6.72;;;4.18;;
16977;SDS011;8605;52.548;4.918;2023-04-05T10:23:44;7.75;;;4.65;;
16977;SDS011;8605;52.548;4.918;2023-04-05T10:28:52;10.95;;;5.32;;
16977;SDS011;8605;52.548;4.918;2023-04-05T10:34:03;6.25;;;4.05;;
16977;SDS011;8605;52.548;4.918;2023-04-05T10:39:08;8.98;;;4.60;;
16977;SDS011;8605;52.548;4.918;2023-04-05T10:44:16;6.57;;;4.10;;
16977;SDS011;8605;52.548;4.918;2023-04-05T10:49:28;7.28;;;3.80;;
16977;SDS011;8605;52.548;4.918;2023-04-05T10:54:35;10.23;;;4.40;;
16977;SDS011;8605;52.548;4.918;2023-04-05T10:59:40;7.53;;;4.57;;
16977;SDS011;8605;52.548;4.918;2023-04-05T11:04:44;7.63;;;4.50;;
16977;SDS011;8605;52.548;4.918;2023-04-05T11:09:49;8.32;;;4.57;;
16977;SDS011;8605;52.548;4.918;2023-04-05T11:14:55;8.30;;;4.75;;
16977;SDS011;8605;52.548;4.918;2023-04-05T11:20:43;9.30;;;4.85;;
16977;SDS011;8605;52.548;4.918;2023-04-05T11:25:51;8.30;;;4.55;;
16977;SDS011;8605;52.548;4.918;2023-04-05T11:30:56;13.93;;;5.23;;
16977;SDS011;8605;52.548;4.918;2023-04-05T11:36:00;6.93;;;4.50;;
16977;SDS011;8605;52.548;4.918;2023-04-05T11:41:06;8.63;;;4.88;;
16977;SDS011;8605;52.548;4.918;2023-04-05T11:46:19;9.50;;;4.43;;
16977;SDS011;8605;52.548;4.918;2023-04-05T11:51:22;10.10;;;5.32;;
16977;SDS011;8605;52.548;4.918;2023-04-05T11:56:25;7.97;;;5.15;;
16977;SDS011;8605;52.548;4.918;2023-04-05T12:01:29;11.45;;;5.82;;
16977;SDS011;8605;52.548;4.918;2023-04-05T12:06:32;7.60;;;5.18;;
16977;SDS011;8605;52.548;4.918;2023-04-05T12:11:35;7.97;;;5.27;;
16977;SDS011;8605;52.548;4.918;2023-04-05T12:16:48;10.10;;;5.38;;
16977;SDS011;8605;52.548;4.918;2023-04-05T12:21:51;10.70;;;5.40;;
16977;SDS011;8605;52.548;4.918;2023-04-05T12:26:54;7.15;;;4.75;;
16977;SDS011;8605;52.548;4.918;2023-04-05T12:32:02;9.60;;;5.18;;
16977;SDS011;8605;52.548;4.918;2023-04-05T12:37:05;14.80;;;5.97;;
16977;SDS011;8605;52.548;4.918;2023-04-05T12:42:15;8.88;;;5.60;;
16977;SDS011;8605;52.548;4.918;2023-04-05T12:47:20;10.73;;;5.50;;
16977;SDS011;8605;52.548;4.918;2023-04-05T12:52:25;9.57;;;6.05;;
16977;SDS011;8605;52.548;4.918;2023-04-05T12:57:29;12.30;;;5.55;;
16977;SDS011;8605;52.548;4.918;2023-04-05T13:02:34;8.30;;;5.05;;
16977;SDS011;8605;52.548;4.918;2023-04-05T13:07:37;11.25;;;5.18;;
16977;SDS011;8605;52.548;4.918;2023-04-05T13:12:40;8.27;;;5.25;;
16977;SDS011;8605;52.548;4.918;2023-04-05T13:17:44;13.73;;;6.30;;
16977;SDS011;8605;52.548;4.918;2023-04-05T13:22:50;11.85;;;5.18;;
16977;SDS011;8605;52.548;4.918;2023-04-05T13:27:53;11.02;;;5.78;;
16977;SDS011;8605;52.548;4.918;2023-04-05T13:32:57;9.48;;;5.70;;
16977;SDS011;8605;52.548;4.918;2023-04-05T13:38:00;10.70;;;6.07;;
16977;SDS011;8605;52.548;4.918;2023-04-05T13:43:05;11.07;;;5.70;;
16977;SDS011;8605;52.548;4.918;2023-04-05T13:48:09;9.57;;;5.90;;
16977;SDS011;8605;52.548;4.918;2023-04-05T13:53:12;11.77;;;6.28;;
16977;SDS011;8605;52.548;4.918;2023-04-05T13:58:15;10.52;;;6.35;;
16977;SDS011;8605;52.548;4.918;2023-04-05T14:03:20;9.93;;;5.83;;
16977;SDS011;8605;52.548;4.918;2023-04-05T14:08:23;9.77;;;6.03;;
16977;SDS011;8605;52.548;4.918;2023-04-05T14:13:26;11.65;;;5.78;;
16977;SDS011;8605;52.548;4.918;2023-04-05T14:18:30;10.95;;;6.53;;
16977;SDS011;8605;52.548;4.918;2023-04-05T14:23:33;11.13;;;5.93;;
16977;SDS011;8605;52.548;4.918;2023-04-05T14:28:36;10.50;;;5.93;;
16977;SDS011;8605;52.548;4.918;2023-04-05T14:33:40;11.77;;;6.40;;
16977;SDS011;8605;52.548;4.918;2023-04-05T14:38:43;10.75;;;6.00;;
16977;SDS011;8605;52.548;4.918;2023-04-05T14:43:46;11.27;;;5.88;;
16977;SDS011;8605;52.548;4.918;2023-04-05T14:48:50;13.13;;;6.57;;
16977;SDS011;8605;52.548;4.918;2023-04-05T14:53:53;9.23;;;5.97;;
16977;SDS011;8605;52.548;4.918;2023-04-05T14:58:56;10.00;;;6.32;;
16977;SDS011;8605;52.548;4.918;2023-04-05T15:04:00;10.43;;;6.50;;
16977;SDS011;8605;52.548;4.918;2023-04-05T15:09:03;12.53;;;7.00;;
16977;SDS011;8605;52.548;4.918;2023-04-05T15:14:06;11.33;;;6.97;;
16977;SDS011;8605;52.548;4.918;2023-04-05T15:19:22;12.18;;;6.47;;
16977;SDS011;8605;52.548;4.918;2023-04-05T15:24:25;10.80;;;6.95;;
16977;SDS011;8605;52.548;4.918;2023-04-05T15:29:28;12.57;;;6.75;;
16977;SDS011;8605;52.548;4.918;2023-04-05T15:34:33;12.20;;;6.47;;
16977;SDS011;8605;52.548;4.918;2023-04-05T15:39:36;11.15;;;6.82;;
16977;SDS011;8605;52.548;4.918;2023-04-05T15:44:39;13.18;;;6.93;;
16977;SDS011;8605;52.548;4.918;2023-04-05T15:49:44;11.57;;;6.95;;
16977;SDS011;8605;52.548;4.918;2023-04-05T15:54:49;12.35;;;7.20;;
16977;SDS011;8605;52.548;4.918;2023-04-05T15:59:51;14.15;;;7.68;;
16977;SDS011;8605;52.548;4.918;2023-04-05T16:04:56;13.80;;;6.22;;
16977;SDS011;8605;52.548;4.918;2023-04-05T16:09:59;12.18;;;6.88;;
16977;SDS011;8605;52.548;4.918;2023-04-05T16:15:02;11.35;;;6.30;;
16977;SDS011;8605;52.548;4.918;2023-04-05T16:20:09;15.77;;;7.07;;
16977;SDS011;8605;52.548;4.918;2023-04-05T16:25:12;15.37;;;7.30;;
16977;SDS011;8605;52.548;4.918;2023-04-05T16:30:15;13.07;;;6.73;;
16977;SDS011;8605;52.548;4.918;2023-04-05T16:35:20;14.47;;;7.70;;
16977;SDS011;8605;52.548;4.918;2023-04-05T16:40:23;13.43;;;6.80;;
16977;SDS011;8605;52.548;4.918;2023-04-05T16:45:26;12.03;;;7.37;;
16977;SDS011;8605;52.548;4.918;2023-04-05T16:50:32;16.15;;;7.80;;
16977;SDS011;8605;52.548;4.918;2023-04-05T16:55:35;15.05;;;7.05;;
16977;SDS011;8605;52.548;4.918;2023-04-05T17:00:39;12.23;;;6.63;;
16977;SDS011;8605;52.548;4.918;2023-04-05T17:05:43;12.15;;;7.00;;
16977;SDS011;8605;52.548;4.918;2023-04-05T17:10:46;13.90;;;7.77;;
16977;SDS011;8605;52.548;4.918;2023-04-05T17:15:49;11.87;;;7.00;;
16977;SDS011;8605;52.548;4.918;2023-04-05T17:20:54;14.77;;;7.07;;
16977;SDS011;8605;52.548;4.918;2023-04-05T17:25:56;10.95;;;7.05;;
16977;SDS011;8605;52.548;4.918;2023-04-05T17:30:59;9.68;;;6.35;;
16977;SDS011;8605;52.548;4.918;2023-04-05T17:36:04;13.25;;;7.55;;
16977;SDS011;8605;52.548;4.918;2023-04-05T17:41:07;12.83;;;7.67;;
16977;SDS011;8605;52.548;4.918;2023-04-05T17:46:10;12.30;;;7.67;;
16977;SDS011;8605;52.548;4.918;2023-04-05T17:51:16;15.57;;;7.88;;
16977;SDS011;8605;52.548;4.918;2023-04-05T17:56:21;12.60;;;7.82;;
16977;SDS011;8605;52.548;4.918;2023-04-05T18:01:24;14.53;;;8.07;;
16977;SDS011;8605;52.548;4.918;2023-04-05T18:06:28;16.15;;;8.23;;
16977;SDS011;8605;52.548;4.918;2023-04-05T18:11:31;19.20;;;11.13;;
16977;SDS011;8605;52.548;4.918;2023-04-05T18:16:34;21.15;;;11.27;;
16977;SDS011;8605;52.548;4.918;2023-04-05T18:21:39;22.50;;;11.98;;
16977;SDS011;8605;52.548;4.918;2023-04-05T18:26:42;31.47;;;16.47;;
16977;SDS011;8605;52.548;4.918;2023-04-05T18:31:44;30.57;;;16.00;;
16977;SDS011;8605;52.548;4.918;2023-04-05T18:36:49;37.25;;;19.27;;
16977;SDS011;8605;52.548;4.918;2023-04-05T18:41:52;40.65;;;22.05;;
16977;SDS011;8605;52.548;4.918;2023-04-05T18:46:56;40.53;;;22.43;;
16977;SDS011;8605;52.548;4.918;2023-04-05T18:52:00;51.65;;;25.40;;
16977;SDS011;8605;52.548;4.918;2023-04-05T18:57:03;59.33;;;27.23;;
16977;SDS011;8605;52.548;4.918;2023-04-05T19:02:07;56.15;;;28.42;;
16977;SDS011;8605;52.548;4.918;2023-04-05T19:07:12;51.60;;;30.53;;
16977;SDS011;8605;52.548;4.918;2023-04-05T19:12:15;64.28;;;30.10;;
16977;SDS011;8605;52.548;4.918;2023-04-05T19:17:18;65.50;;;32.40;;
16977;SDS011;8605;52.548;4.918;2023-04-05T19:22:22;62.07;;;31.77;;
16977;SDS011;8605;52.548;4.918;2023-04-05T19:27:26;68.97;;;32.97;;
16977;SDS011;8605;52.548;4.918;2023-04-05T19:32:31;69.70;;;33.78;;
16977;SDS011;8605;52.548;4.918;2023-04-05T19:37:35;84.93;;;36.60;;
16977;SDS011;8605;52.548;4.918;2023-04-05T19:42:38;78.75;;;36.45;;
16977;SDS011;8605;52.548;4.918;2023-04-05T19:47:47;80.10;;;37.58;;
16977;SDS011;8605;52.548;4.918;2023-04-05T19:52:52;90.97;;;38.40;;
16977;SDS011;8605;52.548;4.918;2023-04-05T19:57:55;82.55;;;38.10;;
16977;SDS011;8605;52.548;4.918;2023-04-05T20:02:59;86.90;;;37.43;;
16977;SDS011;8605;52.548;4.918;2023-04-05T20:08:04;91.20;;;39.38;;
16977;SDS011;8605;52.548;4.918;2023-04-05T20:13:09;99.55;;;42.65;;
16977;SDS011;8605;52.548;4.918;2023-04-05T20:18:13;92.37;;;38.47;;
16977;SDS011;8605;52.548;4.918;2023-04-05T20:23:23;100.40;;;40.60;;
16977;SDS011;8605;52.548;4.918;2023-04-05T20:28:33;115.68;;;46.65;;
16977;SDS011;8605;52.548;4.918;2023-04-05T20:33:45;108.55;;;43.00;;
16977;SDS011;8605;52.548;4.918;2023-04-05T20:38:50;117.40;;;45.85;;
16977;SDS011;8605;52.548;4.918;2023-04-05T20:43:53;113.32;;;46.45;;
16977;SDS011;8605;52.548;4.918;2023-04-05T20:48:56;101.28;;;43.35;;
16977;SDS011;8605;52.548;4.918;2023-04-05T20:54:01;102.72;;;46.42;;
16977;SDS011;8605;52.548;4.918;2023-04-05T20:59:04;91.50;;;39.08;;
16977;SDS011;8605;52.548;4.918;2023-04-05T21:04:07;104.53;;;41.40;;
16977;SDS011;8605;52.548;4.918;2023-04-05T21:09:11;100.63;;;42.55;;
16977;SDS011;8605;52.548;4.918;2023-04-05T21:14:14;86.65;;;42.25;;
16977;SDS011;8605;52.548;4.918;2023-04-05T21:19:17;99.37;;;43.67;;
16977;SDS011;8605;52.548;4.918;2023-04-05T21:24:21;108.60;;;45.50;;
16977;SDS011;8605;52.548;4.918;2023-04-05T21:29:24;98.70;;;44.17;;
16977;SDS011;8605;52.548;4.918;2023-04-05T21:34:27;91.78;;;42.10;;
16977;SDS011;8605;52.548;4.918;2023-04-05T21:39:31;100.95;;;45.33;;
16977;SDS011;8605;52.548;4.918;2023-04-05T21:44:34;98.37;;;44.17;;
16977;SDS011;8605;52.548;4.918;2023-04-05T21:49:37;91.15;;;40.97;;
16977;SDS011;8605;52.548;4.918;2023-04-05T21:54:44;80.97;;;39.30;;
16977;SDS011;8605;52.548;4.918;2023-04-05T21:59:47;71.10;;;34.50;;
16977;SDS011;8605;52.548;4.918;2023-04-05T22:04:50;66.63;;;32.90;;
16977;SDS011;8605;52.548;4.918;2023-04-05T22:09:54;83.63;;;37.53;;
16977;SDS011;8605;52.548;4.918;2023-04-05T22:14:57;79.38;;;37.72;;
16977;SDS011;8605;52.548;4.918;2023-04-05T22:20:01;90.23;;;39.87;;
16977;SDS011;8605;52.548;4.918;2023-04-05T22:25:07;82.85;;;37.38;;
16977;SDS011;8605;52.548;4.918;2023-04-05T22:30:10;70.00;;;33.90;;
16977;SDS011;8605;52.548;4.918;2023-04-05T22:35:14;81.82;;;35.38;;
16977;SDS011;8605;52.548;4.918;2023-04-05T22:40:18;58.40;;;28.97;;
16977;SDS011;8605;52.548;4.918;2023-04-05T22:45:26;54.72;;;27.10;;
16977;SDS011;8605;52.548;4.918;2023-04-05T22:50:29;48.00;;;24.00;;
16977;SDS011;8605;52.548;4.918;2023-04-05T22:55:33;42.47;;;22.17;;
16977;SDS011;8605;52.548;4.918;2023-04-05T23:00:37;50.43;;;21.43;;
16977;SDS011;8605;52.548;4.918;2023-04-05T23:05:40;37.78;;;19.50;;
16977;SDS011;8605;52.548;4.918;2023-04-05T23:10:45;38.05;;;19.05;;
16977;SDS011;8605;52.548;4.918;2023-04-05T23:15:48;40.88;;;19.92;;
16977;SDS011;8605;52.548;4.918;2023-04-05T23:20:51;32.95;;;17.85;;
16977;SDS011;8605;52.548;4.918;2023-04-05T23:25:56;38.00;;;19.13;;
16977;SDS011;8605;52.548;4.918;2023-04-05T23:30:59;39.72;;;21.42;;
16977;SDS011;8605;52.548;4.918;2023-04-05T23:36:02;45.50;;;23.08;;
16977;SDS011;8605;52.548;4.918;2023-04-05T23:41:06;52.90;;;23.85;;
16977;SDS011;8605;52.548;4.918;2023-04-05T23:46:10;49.85;;;25.23;;
16977;SDS011;8605;52.548;4.918;2023-04-05T23:51:13;46.90;;;24.20;;
16977;SDS011;8605;52.548;4.918;2023-04-05T23:56:18;49.43;;;25.50;;
